createdAt,value
2022-12-06T00:01:32.201Z,361.02
2022-12-06T00:04:02.873Z,402.45
2022-12-06T00:06:32.881Z,373.58
2022-12-06T00:09:02.032Z,377.73
2022-12-06T00:11:32.196Z,381.48
2022-12-06T00:14:03.465Z,385.83
2022-12-06T00:16:32.415Z,400.40
2022-12-06T00:19:01.333Z,355.40
2022-12-06T00:21:31.343Z,389.95
2022-12-06T00:24:01.975Z,351.45
2022-12-06T00:26:30.817Z,351.30
2022-12-06T00:29:02.221Z,375.60
2022-12-06T00:31:32.007Z,345.15
2022-12-06T00:34:00.399Z,350.55
2022-12-06T00:36:30.585Z,352.38
2022-12-06T00:39:01.504Z,377.02
2022-12-06T00:41:30.061Z,381.92
2022-12-06T00:43:58.600Z,394.13
2022-12-06T00:46:30.466Z,373.33
2022-12-06T00:49:00.249Z,402.63
2022-12-06T00:51:30.410Z,383.15
2022-12-06T00:53:59.081Z,400.67
2022-12-06T00:56:28.076Z,370.60
2022-12-06T00:58:56.828Z,363.83
2022-12-06T01:01:28.960Z,337.83
2022-12-06T01:03:58.789Z,369.65
2022-12-06T01:06:29.811Z,364.40
2022-12-06T01:08:59.193Z,390.95
2022-12-06T01:11:28.565Z,345.17
2022-12-06T01:13:57.417Z,310.58
2022-12-06T01:16:29.853Z,313.27
2022-12-06T01:18:59.555Z,314.90
2022-12-06T01:21:29.008Z,289.65
2022-12-06T01:23:57.514Z,340.38
2022-12-06T01:26:28.179Z,281.02
2022-12-06T01:28:56.926Z,328.27
2022-12-06T01:31:25.485Z,331.35
2022-12-06T01:33:55.447Z,319.05
2022-12-06T01:36:26.361Z,300.27
2022-12-06T01:38:56.088Z,314.73
2022-12-06T01:41:26.143Z,268.35
2022-12-06T01:43:55.144Z,299.02
2022-12-06T01:46:35.265Z,311.02
2022-12-06T01:49:15.655Z,322.30
2022-12-06T01:51:47.138Z,325.20
2022-12-06T01:54:17.750Z,303.75
2022-12-06T01:56:46.312Z,306.40
2022-12-06T01:59:14.952Z,294.92
2022-12-06T02:01:43.782Z,255.48
2022-12-06T02:04:13.878Z,231.38
2022-12-06T02:06:43.147Z,276.92
2022-12-06T02:09:12.501Z,257.63
2022-12-06T02:11:43.673Z,235.57
2022-12-06T02:14:14.619Z,306.85
2022-12-06T02:17:07.997Z,324.92
2022-12-06T02:19:56.280Z,234.40
2022-12-06T02:22:31.492Z,285.60
2022-12-06T02:25:12.076Z,290.70
2022-12-06T02:28:05.819Z,215.77
2022-12-06T02:30:44.008Z,229.18
2022-12-06T02:33:17.307Z,294.80
2022-12-06T02:35:50.731Z,339.80
2022-12-06T02:38:23.611Z,311.65
2022-12-06T02:40:56.640Z,296.73
2022-12-06T02:43:28.631Z,246.82
2022-12-06T02:46:01.541Z,311.90
2022-12-06T02:48:30.062Z,282.33
2022-12-06T02:51:01.345Z,281.13
2022-12-06T02:53:31.671Z,281.58
2022-12-06T02:56:00.835Z,307.63
2022-12-06T02:58:29.281Z,265.08
2022-12-06T03:01:00.058Z,234.25
2022-12-06T03:03:51.802Z,336.55
2022-12-06T03:06:51.143Z,288.88
2022-12-06T03:09:27.257Z,266.30
2022-12-06T03:12:01.723Z,319.70
2022-12-06T03:14:34.875Z,320.70
2022-12-06T03:17:11.163Z,202.45
2022-12-06T03:19:41.010Z,216.82
2022-12-06T03:22:13.046Z,297.90
2022-12-06T03:24:42.684Z,313.55
2022-12-06T03:27:14.144Z,312.35
2022-12-06T03:29:44.980Z,287.75
2022-12-06T03:32:16.598Z,265.27
2022-12-06T03:34:47.341Z,314.42
2022-12-06T03:37:19.288Z,217.23
2022-12-06T03:39:51.088Z,311.98
2022-12-06T03:42:20.442Z,273.83
2022-12-06T03:44:49.111Z,313.02
2022-12-06T03:47:22.577Z,204.65
2022-12-06T03:49:53.307Z,318.25
2022-12-06T03:52:23.546Z,294.70
2022-12-06T03:54:51.878Z,249.52
2022-12-06T03:57:20.297Z,304.17
2022-12-06T03:59:48.662Z,206.07
2022-12-06T04:02:18.570Z,254.75
2022-12-06T04:04:47.096Z,228.10
2022-12-06T04:07:15.660Z,305.20
2022-12-06T04:10:03.010Z,265.05
2022-12-06T04:12:50.131Z,327.65
2022-12-06T04:15:19.224Z,326.70
2022-12-06T04:18:06.437Z,364.77
2022-12-06T04:20:49.307Z,336.17
2022-12-06T04:23:18.986Z,278.92
2022-12-06T04:25:47.329Z,217.80
2022-12-06T04:28:33.385Z,231.70
2022-12-06T04:31:22.315Z,348.85
2022-12-06T04:34:10.215Z,317.50
2022-12-06T04:36:56.029Z,324.60
2022-12-06T04:39:24.564Z,364.80
2022-12-06T04:42:10.562Z,293.73
2022-12-06T04:44:38.967Z,241.95
2022-12-06T04:47:07.753Z,268.83
2022-12-06T04:49:38.709Z,239.30
2022-12-06T04:52:07.768Z,343.08
2022-12-06T04:54:36.603Z,297.45
2022-12-06T04:57:11.338Z,165.98
2022-12-06T04:59:40.755Z,238.07
2022-12-06T05:02:11.392Z,281.23
2022-12-06T05:04:41.294Z,312.02
2022-12-06T05:07:09.952Z,263.48
2022-12-06T05:09:38.542Z,177.18
2022-12-06T05:12:07.403Z,277.48
2022-12-06T05:14:35.995Z,218.00
2022-12-06T05:17:04.369Z,229.98
2022-12-06T05:19:32.721Z,272.27
2022-12-06T05:22:02.527Z,318.38
2022-12-06T05:24:30.887Z,273.73
2022-12-06T05:26:59.319Z,275.30
2022-12-06T05:29:28.063Z,211.63
2022-12-06T05:31:56.611Z,275.30
2022-12-06T05:34:25.827Z,204.60
2022-12-06T05:36:54.585Z,301.23
2022-12-06T05:39:24.581Z,243.27
2022-12-06T05:41:53.821Z,221.63
2022-12-06T05:44:22.596Z,323.15
2022-12-06T05:46:51.080Z,162.02
2022-12-06T05:49:20.188Z,271.33
2022-12-06T05:51:48.781Z,181.05
2022-12-06T05:54:17.515Z,201.07
2022-12-06T05:56:47.405Z,313.30
2022-12-06T05:59:15.880Z,296.00
2022-12-06T06:01:44.406Z,373.30
2022-12-06T06:04:12.905Z,304.30
2022-12-06T06:06:41.454Z,208.10
2022-12-06T06:09:25.394Z,230.55
2022-12-06T06:11:55.219Z,167.68
2022-12-06T06:14:24.333Z,166.38
2022-12-06T06:16:53.088Z,234.48
2022-12-06T06:19:23.851Z,214.13
2022-12-06T06:21:52.475Z,255.48
2022-12-06T06:24:21.252Z,246.05
2022-12-06T06:26:49.723Z,170.68
2022-12-06T06:29:19.522Z,319.20
2022-12-06T06:31:47.988Z,193.77
2022-12-06T06:34:16.535Z,417.23
2022-12-06T06:36:46.055Z,359.88
2022-12-06T06:39:14.757Z,208.40
2022-12-06T06:41:43.368Z,410.52
2022-12-06T06:44:11.851Z,318.42
2022-12-06T06:46:41.707Z,372.42
2022-12-06T06:49:11.989Z,269.38
2022-12-06T06:51:40.741Z,229.95
2022-12-06T06:54:09.585Z,314.90
2022-12-06T06:56:38.042Z,244.52
2022-12-06T06:59:06.880Z,449.45
2022-12-06T07:01:35.782Z,215.60
2022-12-06T07:04:06.188Z,209.40
2022-12-06T07:06:34.708Z,270.30
2022-12-06T07:09:03.406Z,303.83
2022-12-06T07:11:32.203Z,255.55
2022-12-06T07:14:01.028Z,172.82
2022-12-06T07:16:29.724Z,317.80
2022-12-06T07:18:58.346Z,291.10
2022-12-06T07:21:28.655Z,288.20
2022-12-06T07:23:57.277Z,231.15
2022-12-06T07:26:26.197Z,243.23
2022-12-06T07:28:56.664Z,187.52
2022-12-06T07:31:27.344Z,267.98
2022-12-06T07:33:57.370Z,231.02
2022-12-06T07:36:27.983Z,163.40
2022-12-06T07:38:57.954Z,385.73
2022-12-06T07:41:45.117Z,174.80
2022-12-06T07:44:33.154Z,228.63
2022-12-06T07:47:01.783Z,308.88
2022-12-06T07:49:30.680Z,212.25
2022-12-06T07:52:00.798Z,282.23
2022-12-06T07:54:29.343Z,342.83
2022-12-06T07:56:57.797Z,238.32
2022-12-06T07:59:26.899Z,198.00
2022-12-06T08:01:55.893Z,279.27
2022-12-06T08:04:24.529Z,205.00
2022-12-06T08:06:53.122Z,198.02
2022-12-06T08:09:23.228Z,243.23
2022-12-06T08:11:51.878Z,273.65
2022-12-06T08:14:20.276Z,199.68
2022-12-06T08:16:48.730Z,213.52
2022-12-06T08:19:17.126Z,297.20
2022-12-06T08:21:45.682Z,164.23
2022-12-06T08:24:14.550Z,232.50
2022-12-06T08:26:44.592Z,252.88
2022-12-06T08:29:13.304Z,210.43
2022-12-06T08:31:42.434Z,264.02
2022-12-06T08:34:11.037Z,535.25
2022-12-06T08:36:40.074Z,610.33
2022-12-06T08:39:09.462Z,555.08
2022-12-06T08:41:55.440Z,453.70
2022-12-06T08:44:25.576Z,454.55
2022-12-06T08:46:55.177Z,536.03
2022-12-06T08:49:24.235Z,461.27
2022-12-06T08:51:53.287Z,448.77
2022-12-06T08:54:23.340Z,354.95
2022-12-06T08:56:52.541Z,325.55
2022-12-06T08:59:21.458Z,261.88
2022-12-06T09:01:51.582Z,336.67
2022-12-06T09:04:20.286Z,204.75
2022-12-06T09:06:49.077Z,320.58
2022-12-06T09:09:19.145Z,255.98
2022-12-06T09:11:50.276Z,213.65
2022-12-06T09:14:22.265Z,219.60
2022-12-06T09:16:52.982Z,201.85
2022-12-06T09:19:22.436Z,245.20
2022-12-06T09:21:50.924Z,245.60
2022-12-06T09:24:20.309Z,239.23
2022-12-06T09:26:49.134Z,207.52
2022-12-06T09:29:18.155Z,259.67
2022-12-06T09:31:47.059Z,386.85
2022-12-06T09:34:17.568Z,196.88
2022-12-06T09:36:49.775Z,245.15
2022-12-06T09:39:22.096Z,364.52
2022-12-06T09:42:19.378Z,227.05
2022-12-06T09:45:12.744Z,238.27
2022-12-06T09:47:52.647Z,211.60
2022-12-06T09:50:27.406Z,324.90
2022-12-06T09:53:08.462Z,238.35
2022-12-06T09:55:47.390Z,217.70
2022-12-06T09:58:24.519Z,250.20
2022-12-06T10:00:59.663Z,214.95
2022-12-06T10:03:38.445Z,178.43
2022-12-06T10:06:12.548Z,195.23
2022-12-06T10:08:52.610Z,173.20
2022-12-06T10:11:32.343Z,174.10
2022-12-06T10:14:10.149Z,321.58
2022-12-06T10:16:48.224Z,294.83
2022-12-06T10:19:26.654Z,264.33
2022-12-06T10:22:04.654Z,331.70
2022-12-06T10:24:42.670Z,237.13
2022-12-06T10:27:13.547Z,289.60
2022-12-06T10:29:51.086Z,309.98
2022-12-06T10:32:23.648Z,344.02
2022-12-06T10:34:56.710Z,293.85
2022-12-06T10:37:35.712Z,303.08
2022-12-06T10:40:09.556Z,274.02
2022-12-06T10:42:42.071Z,448.75
2022-12-06T10:45:38.026Z,309.60
2022-12-06T10:48:16.306Z,342.50
2022-12-06T10:50:46.119Z,310.60
2022-12-06T10:53:18.124Z,323.67
2022-12-06T10:55:49.701Z,255.98
2022-12-06T10:58:22.112Z,268.73
2022-12-06T11:00:55.876Z,281.77
2022-12-06T11:03:28.517Z,254.18
2022-12-06T11:05:58.941Z,327.45
2022-12-06T11:08:32.502Z,216.20
2022-12-06T11:11:01.630Z,272.58
2022-12-06T11:13:36.862Z,358.30
2022-12-06T11:16:08.268Z,301.95
2022-12-06T11:18:36.911Z,230.85
2022-12-06T11:21:13.489Z,258.45
2022-12-06T11:23:49.531Z,361.90
2022-12-06T11:26:25.086Z,307.05
2022-12-06T11:29:04.119Z,249.50
2022-12-06T11:31:35.171Z,253.95
2022-12-06T11:34:04.873Z,273.73
2022-12-06T11:36:33.921Z,176.82
2022-12-06T11:39:05.008Z,245.48
2022-12-06T11:41:36.384Z,282.58
2022-12-06T11:44:05.123Z,447.02
2022-12-06T11:46:33.737Z,277.27
2022-12-06T11:49:14.742Z,193.25
2022-12-06T11:51:43.484Z,190.35
2022-12-06T11:54:22.454Z,250.73
2022-12-06T11:56:51.763Z,231.77
2022-12-06T11:59:25.947Z,302.40
2022-12-06T12:01:56.453Z,269.70
2022-12-06T12:04:37.168Z,291.77
2022-12-06T12:07:12.327Z,288.05
2022-12-06T12:09:50.946Z,204.35
2022-12-06T12:12:21.992Z,274.60
2022-12-06T12:14:56.539Z,343.30
2022-12-06T12:17:30.366Z,302.13
2022-12-06T12:20:01.085Z,477.80
2022-12-06T12:22:32.969Z,360.42
2022-12-06T12:25:21.089Z,354.30
2022-12-06T12:27:51.019Z,235.18
2022-12-06T12:30:29.168Z,309.60
2022-12-06T12:33:18.639Z,245.65
2022-12-06T12:35:49.391Z,309.67
2022-12-06T12:38:27.844Z,204.13
2022-12-06T12:40:59.666Z,243.98
2022-12-06T12:43:31.186Z,261.90
2022-12-06T12:46:21.872Z,366.02
2022-12-06T12:48:51.745Z,383.83
2022-12-06T12:51:34.002Z,280.23
2022-12-06T12:54:05.650Z,380.23
2022-12-06T12:56:38.162Z,420.08
2022-12-06T12:59:15.312Z,557.40
2022-12-06T13:01:46.964Z,554.50
2022-12-06T13:04:21.624Z,469.58
2022-12-06T13:06:52.732Z,494.52
2022-12-06T13:09:27.586Z,398.63
2022-12-06T13:12:01.573Z,419.30
2022-12-06T13:14:30.531Z,493.65
2022-12-06T13:17:01.870Z,473.10
2022-12-06T13:19:35.091Z,428.35
2022-12-06T13:22:05.252Z,436.33
2022-12-06T13:24:34.787Z,450.83
2022-12-06T13:27:07.989Z,405.30
2022-12-06T13:29:39.923Z,397.48
2022-12-06T13:32:13.077Z,444.13
2022-12-06T13:34:45.129Z,477.58
2022-12-06T13:37:36.576Z,419.83
2022-12-06T13:40:08.192Z,427.15
2022-12-06T13:42:46.585Z,430.70
2022-12-06T13:45:40.999Z,453.58
2022-12-06T13:48:40.069Z,453.50
2022-12-06T13:51:13.975Z,463.50
2022-12-06T13:54:18.932Z,471.85
2022-12-06T13:56:47.695Z,441.25
2022-12-06T14:12:37.072Z,278.80
2022-12-06T14:15:07.486Z,451.50
2022-12-06T14:20:31.887Z,428.10
2022-12-06T14:23:01.082Z,435.52
2022-12-06T14:25:31.570Z,434.50
2022-12-06T14:28:07.706Z,508.15
2022-12-06T14:30:36.951Z,560.38
2022-12-06T14:33:19.789Z,598.40
2022-12-06T14:35:51.979Z,471.75
2022-12-06T14:38:24.563Z,532.92
2022-12-06T14:41:11.018Z,459.67
2022-12-06T14:43:45.135Z,496.20
2022-12-06T14:46:16.001Z,453.15
2022-12-06T14:49:02.466Z,444.80
2022-12-06T14:51:38.034Z,482.30
2022-12-06T14:54:18.818Z,448.10
2022-12-06T14:56:47.236Z,456.40
2022-12-06T14:59:47.376Z,439.67
2022-12-06T15:02:23.871Z,575.28
2022-12-06T15:04:52.912Z,490.27
2022-12-06T15:07:39.936Z,387.90
2022-12-06T15:10:22.798Z,449.05
2022-12-06T15:12:57.121Z,413.98
2022-12-06T15:15:38.800Z,335.33
2022-12-06T15:18:25.507Z,485.60
2022-12-06T15:23:38.157Z,512.10
2022-12-06T15:26:07.823Z,316.63
2022-12-06T15:28:49.592Z,350.88
2022-12-06T15:31:22.342Z,429.83
2022-12-06T15:33:50.997Z,414.02
2022-12-06T15:36:21.113Z,475.23
2022-12-06T15:38:49.814Z,541.72
2022-12-06T15:41:19.920Z,303.67
2022-12-06T15:43:48.608Z,429.98
2022-12-06T15:46:23.930Z,409.27
2022-12-06T15:48:53.815Z,275.90
2022-12-06T15:51:24.982Z,566.42
2022-12-06T15:53:54.028Z,357.58
2022-12-06T15:56:23.921Z,387.65
2022-12-06T15:58:52.761Z,362.27
2022-12-06T16:01:24.961Z,293.63
2022-12-06T16:03:55.064Z,327.20
2022-12-06T16:06:25.671Z,330.80
2022-12-06T16:08:54.361Z,377.35
2022-12-06T16:11:24.327Z,275.05
2022-12-06T16:13:53.110Z,302.88
2022-12-06T16:16:23.234Z,316.40
2022-12-06T16:18:52.327Z,173.45
2022-12-06T16:21:23.181Z,394.58
2022-12-06T16:24:13.206Z,278.10
2022-12-06T16:26:45.538Z,307.15
2022-12-06T16:29:17.066Z,306.80
2022-12-06T16:31:47.871Z,319.00
2022-12-06T16:34:16.666Z,386.00
2022-12-06T16:36:59.954Z,198.57
2022-12-06T16:39:28.935Z,254.95
2022-12-06T16:41:57.874Z,336.27
2022-12-06T16:44:27.478Z,192.82
2022-12-06T16:47:00.362Z,185.88
2022-12-06T16:49:49.584Z,284.50
2022-12-06T16:52:19.086Z,351.48
2022-12-06T16:54:48.336Z,220.05
2022-12-06T16:57:19.745Z,241.07
2022-12-06T16:59:48.915Z,240.43
2022-12-06T17:02:27.326Z,199.63
2022-12-06T17:04:56.909Z,245.73
2022-12-06T17:07:26.514Z,266.88
2022-12-06T17:09:55.877Z,384.20
2022-12-06T17:12:25.308Z,245.25
2022-12-06T17:14:55.470Z,316.15
2022-12-06T17:17:32.410Z,413.25
2022-12-06T17:20:05.154Z,325.15
2022-12-06T17:22:36.737Z,393.75
2022-12-06T17:25:06.655Z,207.23
2022-12-06T17:27:35.724Z,187.65
2022-12-06T17:30:05.987Z,235.43
2022-12-06T17:32:37.154Z,363.85
2022-12-06T17:35:06.314Z,355.35
2022-12-06T17:37:35.204Z,393.23
2022-12-06T17:40:07.625Z,306.30
2022-12-06T17:42:53.876Z,253.07
2022-12-06T17:45:24.845Z,334.90
2022-12-06T17:47:58.079Z,371.35
2022-12-06T17:50:27.453Z,295.60
2022-12-06T17:52:56.087Z,263.30
2022-12-06T17:55:24.925Z,297.90
2022-12-06T17:57:53.716Z,428.55
2022-12-06T18:00:23.642Z,255.13
2022-12-06T18:02:55.894Z,345.42
2022-12-06T18:05:29.673Z,335.13
2022-12-06T18:08:01.524Z,311.47
2022-12-06T18:10:30.085Z,214.73
2022-12-06T18:13:01.439Z,282.85
2022-12-06T18:15:44.428Z,387.35
2022-12-06T18:18:14.971Z,176.18
2022-12-06T18:20:47.312Z,245.15
2022-12-06T18:23:19.614Z,254.55
2022-12-06T18:25:49.132Z,466.30
2022-12-06T18:28:17.826Z,370.08
2022-12-06T18:30:46.714Z,321.08
2022-12-06T18:33:19.315Z,367.95
2022-12-06T18:38:22.609Z,305.90
2022-12-06T18:40:51.779Z,276.88
2022-12-06T18:43:21.431Z,295.73
2022-12-06T18:45:50.926Z,316.23
2022-12-06T18:48:21.183Z,216.75
2022-12-06T18:50:50.549Z,272.75
2022-12-06T18:53:24.300Z,339.95
2022-12-06T18:55:55.717Z,341.57
2022-12-06T18:58:24.587Z,367.50
2022-12-06T19:00:54.019Z,247.43
2022-12-06T19:03:22.956Z,366.65
2022-12-06T19:06:02.896Z,373.08
2022-12-06T19:08:34.178Z,374.15
2022-12-06T19:11:04.504Z,410.42
2022-12-06T19:13:34.078Z,398.40
2022-12-06T19:16:04.410Z,393.63
2022-12-06T19:18:33.627Z,313.55
2022-12-06T19:21:03.128Z,396.77
2022-12-06T19:23:34.114Z,403.92
2022-12-06T19:26:04.062Z,481.75
2022-12-06T19:28:34.109Z,397.10
2022-12-06T19:31:04.000Z,444.58
2022-12-06T19:33:37.146Z,348.75
2022-12-06T19:36:08.825Z,420.40
2022-12-06T19:38:38.759Z,405.45
2022-12-06T19:41:09.327Z,396.38
2022-12-06T19:43:55.711Z,418.30
2022-12-06T19:46:26.325Z,404.10
2022-12-06T19:48:56.575Z,428.08
2022-12-06T19:51:26.789Z,340.50
2022-12-06T19:53:58.020Z,489.42
2022-12-06T19:56:27.609Z,377.52
2022-12-06T19:58:58.268Z,415.30
2022-12-06T20:01:30.159Z,356.42
2022-12-06T20:03:59.088Z,409.92
2022-12-06T20:06:28.922Z,412.60
2022-12-06T20:09:02.335Z,431.17
2022-12-06T20:11:48.384Z,453.05
2022-12-06T20:14:18.977Z,405.40
2022-12-06T20:16:47.965Z,414.95
2022-12-06T20:19:16.930Z,412.30
2022-12-06T20:21:46.028Z,362.88
2022-12-06T20:24:18.883Z,363.45
2022-12-06T20:26:49.264Z,423.27
2022-12-06T20:29:19.031Z,435.33
2022-12-06T20:31:48.545Z,335.73
2022-12-06T20:34:17.116Z,418.63
2022-12-06T20:36:45.766Z,418.00
2022-12-06T20:39:21.928Z,434.42
2022-12-06T20:41:51.182Z,421.13
2022-12-06T20:44:20.848Z,384.65
2022-12-06T20:46:50.841Z,456.92
2022-12-06T20:49:19.634Z,395.75
2022-12-06T20:51:52.581Z,636.58
2022-12-06T20:54:41.266Z,414.13
2022-12-06T20:57:10.778Z,444.73
2022-12-06T20:59:42.297Z,493.27
2022-12-06T21:02:16.601Z,421.70
2022-12-06T21:04:46.131Z,408.60
2022-12-06T21:07:14.630Z,432.25
2022-12-06T21:09:44.908Z,425.20
2022-12-06T21:12:13.593Z,316.05
2022-12-06T21:14:42.140Z,347.02
2022-12-06T21:17:10.796Z,422.15
2022-12-06T21:19:39.570Z,416.45
2022-12-06T21:22:08.468Z,421.75
2022-12-06T21:24:38.111Z,395.55
2022-12-06T21:27:15.805Z,441.25
2022-12-06T21:30:29.431Z,419.48
2022-12-06T21:32:59.957Z,387.38
2022-12-06T21:35:35.624Z,402.10
2022-12-06T21:38:10.910Z,417.23
2022-12-06T21:45:41.674Z,416.38
2022-12-06T21:54:47.847Z,510.45
2022-12-06T21:57:16.937Z,431.77
2022-12-06T21:59:45.759Z,413.48
2022-12-06T22:02:14.551Z,431.05
2022-12-06T22:04:43.451Z,434.13
2022-12-06T22:07:13.920Z,432.08
2022-12-06T22:09:42.469Z,377.20
2022-12-06T22:12:11.235Z,424.65
2022-12-06T22:14:39.775Z,336.92
2022-12-06T22:17:08.564Z,436.02
2022-12-06T22:19:37.352Z,427.63
2022-12-06T22:22:06.010Z,449.83
2022-12-06T22:24:37.074Z,450.60
2022-12-06T22:27:06.378Z,439.17
2022-12-06T22:29:34.932Z,426.25
2022-12-06T22:32:04.020Z,426.55
2022-12-06T22:34:33.295Z,419.15
2022-12-06T22:37:02.123Z,436.70
2022-12-06T22:39:30.708Z,419.77
2022-12-06T22:42:00.798Z,420.02
2022-12-06T22:44:29.576Z,426.65
2022-12-06T22:46:58.250Z,403.10
2022-12-06T22:49:27.480Z,440.75
2022-12-06T22:51:56.619Z,425.92
2022-12-06T22:54:25.974Z,416.33
2022-12-06T22:56:54.967Z,377.25
2022-12-06T22:59:25.123Z,440.77
2022-12-06T23:01:53.961Z,451.50
2022-12-06T23:04:23.114Z,456.27
2022-12-06T23:06:51.721Z,447.67
2022-12-06T23:09:20.813Z,462.52
2022-12-06T23:11:50.549Z,451.23
2022-12-06T23:14:22.171Z,452.20
2022-12-06T23:16:52.591Z,463.83
2022-12-06T23:19:22.573Z,487.30
2022-12-06T23:21:52.050Z,473.63
2022-12-06T23:24:21.452Z,427.30
2022-12-06T23:26:57.502Z,395.88
2022-12-06T23:29:27.056Z,493.35
2022-12-06T23:31:57.389Z,478.38
2022-12-06T23:34:27.403Z,412.45
2022-12-06T23:36:57.427Z,404.60
2022-12-06T23:39:26.154Z,407.58
2022-12-06T23:41:55.041Z,478.92
2022-12-06T23:44:25.221Z,419.45
2022-12-06T23:46:53.933Z,411.70
2022-12-06T23:49:24.209Z,372.85
2022-12-06T23:51:52.972Z,381.73
2022-12-06T23:54:21.543Z,500.67
2022-12-06T23:56:50.165Z,426.67
2022-12-06T23:59:19.432Z,416.40
